createdAt,value
2018-07-27T00:00:09.893Z,5.80
2018-07-27T00:02:39.406Z,5.30
2018-07-27T00:05:08.741Z,5.67
2018-07-27T00:07:37.871Z,5.67
2018-07-27T00:10:07.213Z,5.57
2018-07-27T00:12:36.361Z,5.47
2018-07-27T00:15:05.504Z,5.60
2018-07-27T00:17:34.617Z,5.30
2018-07-27T00:20:03.813Z,5.10
2018-07-27T00:22:32.950Z,5.50
2018-07-27T00:25:02.082Z,5.63
2018-07-27T00:27:31.214Z,5.63
2018-07-27T00:30:00.362Z,5.33
2018-07-27T00:32:29.573Z,5.60
2018-07-27T00:34:58.961Z,5.83
2018-07-27T00:37:28.101Z,5.40
2018-07-27T00:39:57.208Z,5.30
2018-07-27T00:42:26.339Z,5.83
2018-07-27T00:44:55.452Z,6.03
2018-07-27T00:47:24.571Z,5.40
2018-07-27T00:49:53.706Z,5.50
2018-07-27T00:52:22.814Z,5.40
2018-07-27T00:54:51.986Z,5.67
2018-07-27T00:57:21.077Z,5.93
2018-07-27T00:59:50.257Z,5.80
2018-07-27T01:02:19.377Z,5.70
2018-07-27T01:04:48.740Z,6.00
2018-07-27T01:07:17.857Z,5.80
2018-07-27T01:09:46.981Z,5.97
2018-07-27T01:12:16.125Z,6.07
2018-07-27T01:14:45.252Z,6.10
2018-07-27T01:17:14.412Z,5.70
2018-07-27T01:19:43.530Z,6.20
2018-07-27T01:22:12.794Z,6.10
2018-07-27T01:24:41.927Z,5.53
2018-07-27T01:27:11.129Z,5.50
2018-07-27T01:29:40.242Z,5.77
2018-07-27T01:32:09.381Z,5.47
2018-07-27T01:34:38.513Z,5.30
2018-07-27T01:37:07.701Z,5.77
2018-07-27T01:39:36.893Z,5.17
2018-07-27T01:42:06.026Z,5.40
2018-07-27T01:44:35.145Z,5.33
2018-07-27T01:47:04.283Z,5.33
2018-07-27T01:49:33.397Z,5.30
2018-07-27T01:52:02.517Z,5.20
2018-07-27T01:54:31.695Z,5.53
2018-07-27T01:57:00.814Z,5.63
2018-07-27T01:59:30.085Z,5.03
2018-07-27T02:01:59.295Z,5.23
2018-07-27T02:04:28.453Z,5.07
2018-07-27T02:06:57.601Z,5.43
2018-07-27T02:09:26.718Z,5.27
2018-07-27T02:11:55.852Z,5.60
2018-07-27T02:14:24.965Z,5.30
2018-07-27T02:16:54.093Z,5.53
2018-07-27T02:19:23.237Z,5.83
2018-07-27T02:21:52.409Z,5.57
2018-07-27T02:24:21.582Z,5.40
2018-07-27T02:26:50.942Z,5.40
2018-07-27T02:29:20.071Z,5.50
2018-07-27T02:31:49.198Z,5.37
2018-07-27T02:34:18.350Z,5.50
2018-07-27T02:36:47.486Z,5.83
2018-07-27T02:39:16.634Z,5.43
2018-07-27T02:41:45.791Z,5.13
2018-07-27T02:44:14.924Z,5.23
2018-07-27T02:46:44.050Z,5.37
2018-07-27T02:49:13.169Z,5.60
2018-07-27T02:51:42.314Z,5.20
2018-07-27T02:54:11.455Z,5.60
2018-07-27T02:56:40.557Z,5.20
2018-07-27T02:59:10.107Z,5.30
2018-07-27T03:01:39.282Z,5.50
2018-07-27T03:04:08.489Z,5.57
2018-07-27T03:06:37.605Z,5.47
2018-07-27T03:09:12.394Z,5.80
2018-07-27T03:11:41.554Z,5.43
2018-07-27T03:14:10.715Z,5.40
2018-07-27T03:16:39.826Z,5.93
2018-07-27T03:19:08.970Z,5.60
2018-07-27T03:21:38.077Z,5.20
2018-07-27T03:24:07.223Z,5.57
2018-07-27T03:26:36.363Z,5.73
2018-07-27T03:29:05.577Z,5.07
2018-07-27T03:31:34.706Z,5.07
2018-07-27T03:34:03.939Z,5.47
2018-07-27T03:36:33.017Z,5.33
2018-07-27T03:39:02.205Z,4.77
2018-07-27T03:41:31.358Z,5.17
2018-07-27T03:44:00.502Z,5.30
2018-07-27T03:46:29.670Z,5.23
2018-07-27T03:48:58.890Z,5.43
2018-07-27T03:51:28.052Z,5.27
2018-07-27T03:53:57.269Z,5.37
2018-07-27T03:56:26.440Z,5.20
2018-07-27T03:58:55.586Z,5.23
2018-07-27T04:01:24.779Z,5.10
2018-07-27T04:03:53.965Z,5.23
2018-07-27T04:06:23.123Z,5.10
2018-07-27T04:08:52.166Z,5.30
2018-07-27T04:11:21.312Z,4.83
2018-07-27T04:13:50.489Z,5.63
2018-07-27T04:16:19.665Z,5.30
2018-07-27T04:18:48.798Z,5.40
2018-07-27T04:21:17.929Z,5.33
2018-07-27T04:23:47.078Z,5.73
2018-07-27T04:26:16.299Z,5.30
2018-07-27T04:28:45.369Z,5.27
2018-07-27T04:31:14.546Z,5.20
2018-07-27T04:33:43.712Z,4.97
2018-07-27T04:36:12.837Z,5.27
2018-07-27T04:38:41.945Z,5.20
2018-07-27T04:41:11.117Z,5.30
2018-07-27T04:43:40.255Z,5.50
2018-07-27T04:46:09.582Z,5.57
2018-07-27T04:48:39.046Z,6.07
2018-07-27T04:51:08.266Z,5.37
2018-07-27T04:53:37.445Z,5.07
2018-07-27T04:59:00.658Z,5.50
2018-07-27T05:01:30.236Z,5.50
2018-07-27T05:03:59.583Z,5.67
2018-07-27T05:06:28.945Z,5.70
2018-07-27T05:09:03.423Z,5.40
2018-07-27T05:11:32.622Z,6.10
2018-07-27T05:14:01.813Z,5.53
2018-07-27T05:16:31.027Z,5.67
2018-07-27T05:19:00.218Z,5.90
2018-07-27T05:21:29.394Z,5.50
2018-07-27T05:23:58.654Z,5.77
2018-07-27T05:26:31.746Z,6.27
2018-07-27T05:29:00.969Z,5.77
2018-07-27T05:31:30.121Z,5.50
2018-07-27T05:33:59.467Z,5.80
2018-07-27T05:36:28.650Z,5.30
2018-07-27T05:38:58.037Z,6.00
2018-07-27T05:41:27.181Z,6.57
2018-07-27T05:43:56.310Z,5.73
2018-07-27T05:46:38.225Z,5.50
2018-07-27T05:49:07.334Z,5.80
2018-07-27T05:51:36.479Z,6.60
2018-07-27T05:54:05.802Z,6.00
2018-07-27T05:56:35.070Z,6.50
2018-07-27T05:59:04.260Z,6.03
2018-07-27T06:01:33.414Z,5.90
2018-07-27T06:04:22.123Z,5.23
2018-07-27T06:06:51.265Z,6.40
2018-07-27T06:09:20.389Z,5.53
2018-07-27T06:11:49.553Z,5.70
2018-07-27T06:14:18.893Z,5.30
2018-07-27T06:16:48.017Z,5.70
2018-07-27T06:19:17.125Z,5.60
2018-07-27T06:21:46.289Z,5.90
2018-07-27T06:24:15.509Z,5.60
2018-07-27T06:26:44.574Z,5.60
2018-07-27T06:29:13.707Z,5.50
2018-07-27T06:31:42.821Z,5.43
2018-07-27T06:34:11.938Z,5.17
2018-07-27T06:36:41.091Z,6.03
2018-07-27T06:39:11.357Z,5.73
2018-07-27T06:41:40.997Z,5.93
2018-07-27T06:44:10.121Z,5.97
2018-07-27T06:46:39.218Z,5.40
2018-07-27T06:49:08.338Z,5.30
2018-07-27T06:51:37.441Z,6.03
2018-07-27T06:54:06.885Z,6.23
2018-07-27T06:56:36.013Z,5.47
2018-07-27T06:59:05.125Z,5.37
2018-07-27T07:01:34.249Z,5.87
2018-07-27T07:04:03.357Z,5.87
2018-07-27T07:06:32.517Z,5.90
2018-07-27T07:09:01.733Z,5.93
2018-07-27T07:11:30.837Z,5.20
2018-07-27T07:13:59.966Z,5.77
2018-07-27T07:16:29.089Z,5.40
2018-07-27T07:18:58.209Z,5.73
2018-07-27T07:21:27.651Z,5.10
2018-07-27T07:23:56.757Z,5.53
2018-07-27T07:26:25.868Z,5.83
2018-07-27T07:28:54.990Z,5.77
2018-07-27T07:31:24.102Z,5.50
2018-07-27T07:33:53.193Z,6.13
2018-07-27T07:36:23.441Z,5.60
2018-07-27T07:38:52.550Z,6.20
2018-07-27T07:41:21.841Z,5.70
2018-07-27T07:43:51.415Z,5.77
2018-07-27T07:46:20.521Z,5.77
2018-07-27T07:48:49.608Z,5.80
2018-07-27T07:51:18.734Z,5.77
2018-07-27T07:53:47.877Z,6.03
2018-07-27T07:56:17.852Z,6.07
2018-07-27T07:58:46.965Z,5.90
2018-07-27T08:01:16.109Z,5.87
2018-07-27T08:03:45.241Z,5.80
2018-07-27T08:06:14.371Z,5.67
2018-07-27T08:08:43.533Z,5.53
2018-07-27T08:11:12.722Z,6.30
2018-07-27T08:13:41.841Z,6.40
2018-07-27T08:16:10.977Z,6.17
2018-07-27T08:18:40.136Z,6.30
2018-07-27T08:21:09.229Z,6.27
2018-07-27T08:23:38.325Z,6.00
2018-07-27T08:27:16.005Z,6.43
2018-07-27T08:29:45.981Z,6.53
2018-07-27T08:32:15.297Z,6.17
2018-07-27T08:34:44.499Z,5.80
2018-07-27T08:37:13.717Z,6.80
2018-07-27T08:39:43.424Z,6.70
2018-07-27T08:42:12.512Z,6.17
2018-07-27T08:44:42.424Z,6.00
2018-07-27T08:47:11.592Z,6.23
2018-07-27T08:49:40.705Z,6.57
2018-07-27T08:52:09.837Z,6.20
2018-07-27T08:54:38.951Z,6.10
2018-07-27T08:57:11.585Z,6.40
2018-07-27T08:59:40.713Z,6.40
2018-07-27T09:02:09.884Z,5.90
2018-07-27T09:04:39.013Z,6.10
2018-07-27T09:07:08.128Z,5.83
2018-07-27T09:09:37.246Z,6.40
2018-07-27T09:12:07.040Z,6.70
2018-07-27T09:14:36.166Z,6.03
2018-07-27T09:17:05.325Z,6.30
2018-07-27T09:19:34.469Z,6.37
2018-07-27T09:22:03.645Z,6.50
2018-07-27T09:24:33.016Z,5.80
2018-07-27T09:27:01.965Z,5.97
2018-07-27T09:29:31.130Z,6.23
2018-07-27T09:32:00.280Z,6.03
2018-07-27T09:34:29.418Z,6.00
2018-07-27T09:36:58.557Z,6.53
2018-07-27T09:39:27.717Z,6.20
2018-07-27T09:41:56.861Z,5.80
2018-07-27T09:44:26.191Z,6.10
2018-07-27T09:46:55.357Z,6.70
2018-07-27T09:49:24.530Z,5.90
2018-07-27T09:51:53.661Z,6.53
2018-07-27T09:54:22.825Z,6.33
2018-07-27T09:56:51.932Z,6.20
2018-07-27T09:59:21.163Z,6.47
2018-07-27T10:01:50.277Z,6.40
2018-07-27T10:04:19.424Z,5.90
2018-07-27T10:06:49.610Z,5.97
2018-07-27T10:09:18.741Z,6.20
2018-07-27T10:11:47.911Z,6.30
2018-07-27T10:14:17.078Z,5.93
2018-07-27T10:16:46.247Z,6.07
2018-07-27T10:19:15.358Z,5.50
2018-07-27T10:21:44.520Z,5.90
2018-07-27T10:24:13.658Z,5.60
2018-07-27T10:26:42.761Z,6.03
2018-07-27T10:29:11.878Z,6.10
2018-07-27T10:31:40.994Z,6.17
2018-07-27T10:34:10.141Z,6.07
2018-07-27T10:36:39.671Z,6.07
2018-07-27T10:39:11.937Z,6.37
2018-07-27T10:41:41.126Z,6.40
2018-07-27T10:44:10.248Z,5.87
2018-07-27T10:46:39.433Z,6.03
2018-07-27T10:49:08.589Z,5.77
2018-07-27T10:51:37.717Z,6.60
2018-07-27T10:54:07.184Z,5.43
2018-07-27T10:56:36.346Z,5.83
2018-07-27T10:59:05.685Z,5.83
2018-07-27T11:01:34.840Z,5.87
2018-07-27T11:04:04.007Z,5.80
2018-07-27T11:06:33.150Z,6.20
2018-07-27T11:09:02.342Z,5.33
2018-07-27T11:11:31.510Z,5.50
2018-07-27T11:14:00.673Z,5.60
2018-07-27T11:16:29.923Z,5.23
2018-07-27T11:18:59.053Z,5.37
2018-07-27T11:21:28.238Z,5.47
2018-07-27T11:23:57.382Z,4.83
2018-07-27T11:26:26.495Z,5.37
2018-07-27T11:28:55.609Z,5.27
2018-07-27T11:31:24.813Z,5.07
2018-07-27T11:33:53.969Z,5.50
2018-07-27T11:36:23.097Z,5.23
2018-07-27T11:38:52.214Z,5.30
2018-07-27T11:41:21.339Z,5.47
2018-07-27T11:43:50.489Z,5.40
2018-07-27T11:46:19.658Z,5.23
2018-07-27T11:48:52.685Z,5.30
2018-07-27T11:51:22.545Z,5.17
2018-07-27T11:53:51.713Z,5.37
2018-07-27T11:56:20.838Z,5.17
2018-07-27T11:58:50.016Z,5.13
2018-07-27T12:01:19.348Z,5.03
2018-07-27T12:03:48.470Z,5.10
2018-07-27T12:06:17.777Z,5.10
2018-07-27T12:08:46.890Z,5.37
2018-07-27T12:11:16.054Z,5.20
2018-07-27T12:13:45.207Z,4.83
2018-07-27T12:16:14.295Z,4.90
2018-07-27T12:18:43.487Z,5.27
2018-07-27T12:21:12.706Z,5.47
2018-07-27T12:23:41.724Z,5.30
2018-07-27T12:26:10.853Z,4.80
2018-07-27T12:28:39.969Z,5.17
2018-07-27T12:31:09.126Z,4.97
2018-07-27T12:33:38.233Z,4.60
2018-07-27T12:36:07.473Z,4.53
2018-07-27T12:38:36.624Z,4.83
2018-07-27T12:41:05.832Z,4.60
2018-07-27T12:43:34.973Z,4.27
2018-07-27T12:46:04.165Z,4.60
2018-07-27T12:48:33.477Z,4.57
2018-07-27T12:51:02.669Z,4.87
2018-07-27T12:53:31.852Z,4.90
2018-07-27T12:56:01.006Z,4.73
2018-07-27T12:58:30.194Z,5.10
2018-07-27T13:00:59.486Z,5.00
2018-07-27T13:03:28.714Z,4.80
2018-07-27T13:05:57.868Z,4.80
2018-07-27T13:08:27.016Z,4.47
2018-07-27T13:10:56.113Z,4.73
2018-07-27T13:13:25.254Z,4.60
2018-07-27T13:15:54.380Z,4.50
2018-07-27T13:18:23.513Z,4.50
2018-07-27T13:20:55.197Z,4.40
2018-07-27T13:23:25.085Z,4.47
2018-07-27T13:28:36.749Z,4.80
2018-07-27T13:31:06.146Z,4.60
2018-07-27T13:33:35.303Z,4.27
2018-07-27T13:36:04.445Z,4.20
2018-07-27T13:38:33.771Z,4.80
2018-07-27T13:41:02.960Z,4.33
2018-07-27T13:43:32.990Z,4.50
2018-07-27T13:46:02.141Z,4.33
2018-07-27T13:48:31.445Z,5.10
2018-07-27T13:51:00.619Z,4.37
2018-07-27T13:53:30.081Z,4.23
2018-07-27T13:55:59.337Z,4.60
2018-07-27T13:58:28.499Z,4.37
2018-07-27T14:00:57.698Z,4.40
2018-07-27T14:03:26.808Z,4.73
2018-07-27T14:05:55.960Z,4.17
2018-07-27T14:08:25.688Z,4.30
2018-07-27T14:10:54.889Z,4.53
2018-07-27T14:13:24.005Z,4.20
2018-07-27T14:15:53.150Z,4.50
2018-07-27T14:18:22.272Z,4.47
2018-07-27T14:20:51.441Z,4.20
2018-07-27T14:23:20.575Z,4.80
2018-07-27T14:25:49.977Z,4.57
2018-07-27T14:28:19.165Z,4.47
2018-07-27T14:30:48.416Z,4.40
2018-07-27T14:33:17.649Z,4.13
2018-07-27T14:35:46.842Z,4.70
2018-07-27T14:38:16.319Z,4.37
2018-07-27T14:40:45.508Z,4.80
2018-07-27T14:43:14.593Z,5.00
2018-07-27T14:45:43.736Z,4.47
2018-07-27T14:48:12.846Z,5.03
2018-07-27T14:50:42.362Z,4.80
2018-07-27T14:53:11.529Z,4.73
2018-07-27T14:55:41.721Z,5.33
2018-07-27T14:58:10.871Z,4.80
2018-07-27T15:00:40.074Z,4.57
2018-07-27T15:03:09.714Z,4.40
2018-07-27T15:05:38.873Z,4.70
2018-07-27T15:08:08.157Z,4.67
2018-07-27T15:10:37.333Z,4.93
2018-07-27T15:13:07.247Z,4.40
2018-07-27T15:15:36.385Z,4.57
2018-07-27T15:18:05.706Z,4.60
2018-07-27T15:20:34.925Z,4.30
2018-07-27T15:23:04.090Z,4.57
2018-07-27T15:25:33.341Z,5.00
2018-07-27T15:28:02.483Z,4.60
2018-07-27T15:30:31.582Z,4.63
2018-07-27T15:33:00.721Z,4.70
2018-07-27T15:35:29.853Z,5.10
2018-07-27T15:37:58.964Z,4.97
2018-07-27T15:40:28.109Z,4.63
2018-07-27T15:42:57.227Z,4.60
2018-07-27T15:45:26.565Z,4.50
2018-07-27T15:47:55.727Z,4.50
2018-07-27T15:50:25.070Z,4.10
2018-07-27T15:52:54.252Z,4.30
2018-07-27T15:55:23.461Z,4.27
2018-07-27T15:57:52.905Z,4.30
2018-07-27T16:00:22.097Z,4.40
2018-07-27T16:02:52.041Z,3.90
2018-07-27T16:05:21.675Z,4.87
2018-07-27T16:07:50.951Z,4.13
2018-07-27T16:10:20.237Z,4.20
2018-07-27T16:12:49.487Z,4.20
2018-07-27T16:15:19.015Z,4.43
2018-07-27T16:17:48.502Z,4.30
2018-07-27T16:20:17.786Z,4.37
2018-07-27T16:22:47.057Z,4.43
2018-07-27T16:25:16.193Z,4.17
2018-07-27T16:27:45.337Z,4.37
2018-07-27T16:30:14.509Z,4.10
2018-07-27T16:32:43.638Z,4.20
2018-07-27T16:35:12.757Z,4.37
2018-07-27T16:37:42.121Z,4.30
2018-07-27T16:40:11.273Z,4.57
2018-07-27T16:42:40.389Z,4.30
2018-07-27T16:45:09.536Z,5.00
2018-07-27T16:47:38.709Z,4.63
2018-07-27T16:50:08.542Z,4.23
2018-07-27T16:52:37.752Z,4.43
2018-07-27T16:55:06.971Z,4.70
2018-07-27T16:57:36.113Z,4.90
2018-07-27T17:00:05.299Z,5.00
2018-07-27T17:02:34.473Z,4.40
2018-07-27T17:05:03.661Z,4.47
2018-07-27T17:07:32.773Z,4.20
2018-07-27T17:10:01.933Z,4.60
2018-07-27T17:12:31.122Z,4.20
2018-07-27T17:15:00.252Z,5.10
2018-07-27T17:17:29.371Z,4.70
2018-07-27T17:19:58.581Z,5.90
2018-07-27T17:22:27.666Z,5.93
2018-07-27T17:24:56.814Z,5.40
2018-07-27T17:27:25.904Z,5.63
2018-07-27T17:29:55.013Z,4.90
2018-07-27T17:32:24.159Z,5.30
2018-07-27T17:34:53.312Z,5.20
2018-07-27T17:37:22.437Z,4.80
2018-07-27T17:39:51.709Z,4.77
2018-07-27T17:42:20.821Z,5.07
2018-07-27T17:44:50.090Z,4.37
2018-07-27T17:47:19.193Z,4.60
2018-07-27T17:49:48.313Z,4.50
2018-07-27T17:52:17.543Z,4.67
2018-07-27T17:54:48.737Z,4.53
2018-07-27T17:57:18.205Z,4.40
2018-07-27T17:59:47.421Z,4.63
2018-07-27T18:02:16.593Z,4.63
2018-07-27T18:04:45.789Z,5.00
2018-07-27T18:07:15.050Z,4.57
2018-07-27T18:09:44.110Z,4.77
2018-07-27T18:12:13.357Z,4.43
2018-07-27T18:14:42.470Z,4.60
2018-07-27T18:17:11.598Z,4.60
2018-07-27T18:19:40.737Z,4.63
2018-07-27T18:22:09.973Z,4.57
2018-07-27T18:24:39.074Z,5.43
2018-07-27T18:27:08.237Z,4.57
2018-07-27T18:29:37.497Z,4.80
2018-07-27T18:32:06.636Z,4.67
2018-07-27T18:34:35.786Z,5.30
2018-07-27T18:37:04.889Z,5.17
2018-07-27T18:39:34.046Z,5.13
2018-07-27T18:42:03.153Z,5.47
2018-07-27T18:44:32.273Z,5.23
2018-07-27T18:47:01.362Z,4.90
2018-07-27T18:49:30.473Z,5.10
2018-07-27T18:51:59.647Z,4.63
2018-07-27T18:54:28.788Z,5.30
2018-07-27T18:56:57.945Z,5.50
2018-07-27T18:59:27.126Z,5.43
2018-07-27T19:01:56.283Z,5.63
2018-07-27T19:04:25.484Z,5.40
2018-07-27T19:06:54.605Z,5.10
2018-07-27T19:09:23.712Z,5.13
2018-07-27T19:11:52.902Z,5.60
2018-07-27T19:14:22.033Z,4.93
2018-07-27T19:16:51.125Z,4.97
2018-07-27T19:19:20.233Z,5.47
2018-07-27T19:21:49.376Z,5.50
2018-07-27T19:24:18.489Z,5.67
2018-07-27T19:26:47.597Z,5.50
2018-07-27T19:29:16.717Z,5.80
2018-07-27T19:31:45.821Z,5.77
2018-07-27T19:34:14.909Z,6.00
2018-07-27T19:36:44.034Z,6.07
2018-07-27T19:39:13.210Z,5.73
2018-07-27T19:41:42.732Z,6.20
2018-07-27T19:44:12.094Z,5.87
2018-07-27T19:46:41.201Z,6.57
2018-07-27T19:49:10.351Z,6.33
2018-07-27T19:51:39.441Z,6.20
2018-07-27T19:54:08.532Z,6.00
2018-07-27T19:56:37.670Z,6.07
2018-07-27T19:59:06.777Z,6.20
2018-07-27T20:01:35.873Z,6.27
2018-07-27T20:04:05.109Z,6.37
2018-07-27T20:06:34.218Z,6.23
2018-07-27T20:09:03.805Z,6.50
2018-07-27T20:11:32.942Z,6.27
2018-07-27T20:14:02.051Z,7.13
2018-07-27T20:16:31.158Z,6.43
2018-07-27T20:19:00.242Z,6.10
2018-07-27T20:21:29.400Z,6.40
2018-07-27T20:23:58.517Z,6.13
2018-07-27T20:26:27.641Z,5.47
2018-07-27T20:28:57.047Z,6.10
2018-07-27T20:31:26.177Z,6.23
2018-07-27T20:33:55.394Z,6.47
2018-07-27T20:36:24.897Z,6.77
2018-07-27T20:38:54.097Z,6.57
2018-07-27T20:41:23.521Z,6.87
2018-07-27T20:43:53.084Z,6.50
2018-07-27T20:46:22.150Z,6.70
2018-07-27T20:48:51.320Z,6.10
2018-07-27T20:51:20.482Z,6.30
2018-07-27T20:53:49.593Z,6.47
2018-07-27T20:56:18.698Z,6.27
2018-07-27T20:58:47.867Z,6.23
2018-07-27T21:01:16.994Z,6.47
2018-07-27T21:03:46.110Z,6.43
2018-07-27T21:06:15.213Z,6.40
2018-07-27T21:08:44.331Z,6.53
2018-07-27T21:11:13.464Z,6.60
2018-07-27T21:13:42.556Z,6.83
2018-07-27T21:16:11.666Z,7.13
2018-07-27T21:18:40.794Z,6.90
2018-07-27T21:21:10.006Z,7.30
2018-07-27T21:23:39.109Z,7.63
2018-07-27T21:26:08.291Z,6.57
2018-07-27T21:28:37.415Z,7.10
2018-07-27T21:31:06.603Z,6.77
2018-07-27T21:33:35.721Z,7.07
2018-07-27T21:36:04.848Z,6.57
2018-07-27T21:38:33.985Z,6.63
2018-07-27T21:41:03.174Z,6.60
2018-07-27T21:43:32.245Z,7.20
2018-07-27T21:46:01.379Z,6.47
2018-07-27T21:48:30.469Z,6.17
2018-07-27T21:50:59.651Z,6.97
2018-07-27T21:53:28.797Z,6.90
2018-07-27T21:55:57.929Z,7.03
2018-07-27T21:58:27.092Z,7.50
2018-07-27T22:00:56.263Z,6.53
2018-07-27T22:03:25.397Z,7.07
2018-07-27T22:05:54.533Z,7.50
2018-07-27T22:08:23.629Z,7.23
2018-07-27T22:10:52.754Z,7.03
2018-07-27T22:13:21.890Z,7.10
2018-07-27T22:15:51.013Z,6.90
2018-07-27T22:18:20.138Z,7.20
2018-07-27T22:20:49.245Z,6.73
2018-07-27T22:23:18.354Z,6.93
2018-07-27T22:25:47.445Z,6.93
2018-07-27T22:28:16.566Z,7.00
2018-07-27T22:30:45.662Z,7.10
2018-07-27T22:33:14.786Z,7.00
2018-07-27T22:35:43.918Z,6.77
2018-07-27T22:38:13.042Z,7.00
2018-07-27T22:40:42.200Z,7.80
2018-07-27T22:43:11.797Z,7.50
2018-07-27T22:45:41.153Z,6.70
2018-07-27T22:48:10.319Z,7.13
2018-07-27T22:50:41.513Z,7.10
2018-07-27T22:53:10.637Z,7.23
2018-07-27T22:55:39.742Z,7.60
2018-07-27T22:58:09.057Z,7.70
2018-07-27T23:00:38.187Z,7.40
2018-07-27T23:03:07.709Z,7.20
2018-07-27T23:05:36.805Z,7.50
2018-07-27T23:08:06.162Z,7.23
2018-07-27T23:10:35.249Z,7.77
2018-07-27T23:13:04.405Z,7.90
2018-07-27T23:15:33.560Z,7.33
2018-07-27T23:18:02.689Z,7.93
2018-07-27T23:20:31.785Z,8.33
2018-07-27T23:23:00.925Z,7.43
2018-07-27T23:25:30.045Z,7.57
2018-07-27T23:28:00.206Z,7.47
2018-07-27T23:30:29.324Z,7.37
2018-07-27T23:32:58.495Z,7.63
2018-07-27T23:35:27.701Z,7.67
2018-07-27T23:37:56.824Z,7.70
2018-07-27T23:40:25.933Z,8.20
2018-07-27T23:42:55.049Z,8.10
2018-07-27T23:45:24.165Z,8.27
2018-07-27T23:47:53.265Z,8.00
2018-07-27T23:50:22.417Z,8.47
2018-07-27T23:52:54.057Z,8.30
2018-07-27T23:55:23.378Z,8.30
2018-07-27T23:57:52.493Z,7.90
